Time;durP1;ratioP1;P1;durP2;ratioP2;P2;SDS_P1;SDS_P2;PMS_P1;PMS_P2;Temp;Humidity;BMP_temperature;BMP_pressure;BME280_temperature;BME280_humidity;BME280_pressure;Samples;Min_cycle;Max_cycle;Signal;HPM_P1;HPM_P2
2023/06/25 00:00:49;;;;;;;27.13;16.42;;;;;;;;;;5071569;28;20043;-57
2023/06/25 00:03:15;;;;;;;25.58;16.80;;;;;;;;;;5071646;28;20024;-56
2023/06/25 00:05:42;;;;;;;24.17;16.30;;;;;;;;;;5070976;28;20507;-59
2023/06/25 00:08:08;;;;;;;25.95;16.83;;;;;;;;;;5071549;28;20029;-58
2023/06/25 00:10:34;;;;;;;24.38;15.93;;;;;;;;;;5053549;28;20023;-56
2023/06/25 00:13:00;;;;;;;24.48;15.90;;;;;;;;;;5071328;28;20017;-58
2023/06/25 00:15:27;;;;;;;24.00;15.00;;;;;;;;;;5071137;28;20032;-55
2023/06/25 00:17:53;;;;;;;23.67;14.38;;;;;;;;;;5071316;28;20020;-57
2023/06/25 00:20:19;;;;;;;21.13;14.38;;;;;;;;;;5071496;28;20492;-58
2023/06/25 00:22:46;;;;;;;23.02;14.82;;;;;;;;;;5071352;28;20028;-56
2023/06/25 00:25:16;;;;;;;23.02;15.02;;;;;;;;;;5071110;28;20555;-58
2023/06/25 00:27:47;;;;;;;23.30;14.93;;;;;;;;;;5071299;28;20025;-56
2023/06/25 00:30:13;;;;;;;21.45;13.98;;;;;;;;;;5071355;28;20082;-58
2023/06/25 00:32:39;;;;;;;23.60;14.88;;;;;;;;;;5071429;28;20024;-56
2023/06/25 00:35:06;;;;;;;21.60;14.80;;;;;;;;;;5052976;28;20364;-54
2023/06/25 00:37:36;;;;;;;23.55;14.93;;;;;;;;;;5053427;28;20028;-58
2023/06/25 00:40:03;;;;;;;21.20;13.38;;;;;;;;;;5071212;28;20127;-57
2023/06/25 00:42:33;;;;;;;21.63;14.70;;;;;;;;;;5071332;28;20053;-56
2023/06/25 00:45:00;;;;;;;23.45;14.88;;;;;;;;;;5070869;28;20493;-55
2023/06/25 00:47:26;;;;;;;20.60;13.68;;;;;;;;;;5071017;28;20035;-55
2023/06/25 00:49:52;;;;;;;24.25;13.63;;;;;;;;;;5074637;28;20103;-58
2023/06/25 00:52:19;;;;;;;23.92;14.38;;;;;;;;;;5075341;28;20052;-57
2023/06/25 00:54:45;;;;;;;20.65;14.20;;;;;;;;;;5074988;28;20025;-58
2023/06/25 00:57:11;;;;;;;21.20;13.82;;;;;;;;;;5074934;28;20392;-56
2023/06/25 00:59:43;;;;;;;21.65;14.80;;;;;;;;;;5074727;28;20094;-54
2023/06/25 01:02:26;;;;;;;22.20;14.43;;;;;;;;;;5074969;28;20028;-53
2023/06/25 01:05:11;;;;;;;24.25;14.73;;;;;;;;;;5074442;28;20039;-53
2023/06/25 01:07:38;;;;;;;21.38;14.25;;;;;;;;;;5074663;28;20063;-55
2023/06/25 01:10:05;;;;;;;25.10;14.55;;;;;;;;;;5056830;28;20024;-56
2023/06/25 01:12:31;;;;;;;22.52;14.45;;;;;;;;;;5074609;28;20546;-53
2023/06/25 01:14:59;;;;;;;21.48;13.20;;;;;;;;;;5074236;28;20485;-55
2023/06/25 01:17:26;;;;;;;22.40;13.07;;;;;;;;;;5074472;28;20484;-55
2023/06/25 01:19:52;;;;;;;20.98;13.57;;;;;;;;;;5074494;28;20059;-58
2023/06/25 01:22:18;;;;;;;21.13;13.60;;;;;;;;;;5074476;28;20029;-52
2023/06/25 01:24:45;;;;;;;22.65;13.90;;;;;;;;;;5074131;28;20111;-57
2023/06/25 01:27:11;;;;;;;20.33;13.00;;;;;;;;;;5074220;28;20028;-57
2023/06/25 01:29:38;;;;;;;20.05;13.73;;;;;;;;;;5054762;28;20131;-57
2023/06/25 01:32:06;;;;;;;21.25;14.30;;;;;;;;;;5074188;28;20020;-57
2023/06/25 01:34:32;;;;;;;23.27;14.25;;;;;;;;;;5073973;28;20524;-54
2023/06/25 01:36:58;;;;;;;21.58;13.85;;;;;;;;;;5074058;28;20555;-57
2023/06/25 01:39:25;;;;;;;23.20;14.15;;;;;;;;;;5073899;28;20100;-54
2023/06/25 01:41:51;;;;;;;23.17;14.40;;;;;;;;;;5065777;28;20020;-58
2023/06/25 01:44:20;;;;;;;20.77;13.85;;;;;;;;;;5073740;28;20021;-56
2023/06/25 01:46:46;;;;;;;;;;;;;;;;;;5075399;28;20031;-58
2023/06/25 01:49:11;;;;;;;21.85;14.57;;;;;;;;;;5074051;28;20359;-55
2023/06/25 01:51:37;;;;;;;23.40;13.75;;;;;;;;;;5073910;28;20029;-56
2023/06/25 01:54:03;;;;;;;21.77;12.70;;;;;;;;;;5073464;28;20012;-53
2023/06/25 01:56:29;;;;;;;21.35;13.65;;;;;;;;;;5073746;28;20028;-56
2023/06/25 01:58:55;;;;;;;20.50;13.15;;;;;;;;;;5073422;28;20142;-56
2023/06/25 02:01:22;;;;;;;21.67;12.88;;;;;;;;;;5080750;28;20481;-57
2023/06/25 02:03:48;;;;;;;23.38;13.80;;;;;;;;;;5082907;28;20096;-59
2023/06/25 02:06:14;;;;;;;21.85;13.93;;;;;;;;;;5083221;28;20071;-59
2023/06/25 02:08:40;;;;;;;21.15;12.95;;;;;;;;;;5081959;28;20031;-54
2023/06/25 02:11:06;;;;;;;22.13;13.95;;;;;;;;;;5074154;28;20093;-52
2023/06/25 02:13:33;;;;;;;25.38;13.35;;;;;;;;;;5073394;28;20124;-53
2023/06/25 02:15:59;;;;;;;25.73;13.70;;;;;;;;;;5073341;28;20070;-55
2023/06/25 02:18:25;;;;;;;22.67;13.43;;;;;;;;;;5072168;28;20503;-54
2023/06/25 02:20:51;;;;;;;21.83;12.85;;;;;;;;;;5073292;28;20025;-57
2023/06/25 02:23:17;;;;;;;21.85;13.45;;;;;;;;;;5073246;28;20029;-56
2023/06/25 02:25:43;;;;;;;20.25;12.88;;;;;;;;;;5072947;28;20032;-57
2023/06/25 02:28:09;;;;;;;24.90;14.50;;;;;;;;;;5073256;28;20017;-53
2023/06/25 02:30:35;;;;;;;21.98;13.63;;;;;;;;;;5073288;28;20058;-55
2023/06/25 02:33:01;;;;;;;20.27;12.70;;;;;;;;;;5073067;28;20109;-57
2023/06/25 02:35:27;;;;;;;20.67;12.98;;;;;;;;;;5072824;28;20025;-58
2023/06/25 02:37:53;;;;;;;22.55;13.90;;;;;;;;;;5073078;28;20035;-57
2023/06/25 02:40:19;;;;;;;22.27;13.23;;;;;;;;;;5072965;28;20107;-57
2023/06/25 02:42:45;;;;;;;21.55;13.55;;;;;;;;;;5073039;28;20050;-59
2023/06/25 02:45:11;;;;;;;21.25;12.88;;;;;;;;;;5072675;28;20115;-56
2023/06/25 02:47:37;;;;;;;20.60;13.65;;;;;;;;;;5072980;28;20436;-55
2023/06/25 02:50:03;;;;;;;22.08;13.52;;;;;;;;;;5073213;28;20067;-55
2023/06/25 02:52:29;;;;;;;20.77;13.63;;;;;;;;;;5071475;28;20020;-58
2023/06/25 02:54:55;;;;;;;36.78;17.10;;;;;;;;;;5072581;28;20099;-57
2023/06/25 02:57:29;;;;;;;52.35;29.20;;;;;;;;;;5072996;28;20514;-58
2023/06/25 02:59:55;;;;;;;72.68;37.42;;;;;;;;;;5073053;28;20033;-56
2023/06/25 03:02:21;;;;;;;91.72;48.13;;;;;;;;;;5072993;28;20127;-58
2023/06/25 03:04:47;;;;;;;105.97;52.92;;;;;;;;;;5072450;28;20020;-56
2023/06/25 03:07:13;;;;;;;123.70;55.85;;;;;;;;;;5072433;28;20118;-57
2023/06/25 03:09:39;;;;;;;116.15;57.92;;;;;;;;;;5072448;28;20020;-56
2023/06/25 03:12:05;;;;;;;113.85;58.28;;;;;;;;;;5071671;28;20024;-53
2023/06/25 03:14:31;;;;;;;115.47;63.22;;;;;;;;;;5071874;28;20486;-56
2023/06/25 03:16:57;;;;;;;113.07;56.20;;;;;;;;;;5071718;28;20056;-58
2023/06/25 03:19:23;;;;;;;93.35;48.28;;;;;;;;;;5071641;28;20047;-58
2023/06/25 03:21:49;;;;;;;78.07;41.83;;;;;;;;;;5070661;28;20464;-57
2023/06/25 03:24:15;;;;;;;63.40;33.85;;;;;;;;;;5071814;28;20078;-54
2023/06/25 03:26:41;;;;;;;64.68;33.80;;;;;;;;;;5072038;28;20052;-55
2023/06/25 03:29:07;;;;;;;55.92;32.53;;;;;;;;;;5072077;28;20434;-52
2023/06/25 03:31:33;;;;;;;43.20;26.20;;;;;;;;;;5071885;28;20077;-57
2023/06/25 03:33:59;;;;;;;40.45;23.60;;;;;;;;;;5071568;28;20028;-53
2023/06/25 03:36:25;;;;;;;29.80;16.88;;;;;;;;;;5070532;28;20039;-54
2023/06/25 03:38:51;;;;;;;27.02;15.88;;;;;;;;;;5070710;28;20029;-57
2023/06/25 03:41:17;;;;;;;23.65;14.85;;;;;;;;;;5071738;28;20031;-56
2023/06/25 03:43:43;;;;;;;24.15;15.35;;;;;;;;;;5071694;28;20050;-55
2023/06/25 03:46:09;;;;;;;23.60;15.15;;;;;;;;;;5071524;28;20520;-53
2023/06/25 03:48:35;;;;;;;23.67;15.07;;;;;;;;;;5071878;28;20029;-56
2023/06/25 03:51:01;;;;;;;24.17;14.35;;;;;;;;;;5070628;28;20025;-55
2023/06/25 03:53:27;;;;;;;22.63;14.73;;;;;;;;;;5071576;28;20059;-57
2023/06/25 03:55:53;;;;;;;22.52;14.80;;;;;;;;;;5071399;28;20027;-57
2023/06/25 03:58:19;;;;;;;21.95;14.70;;;;;;;;;;5071705;28;20020;-58
2023/06/25 04:00:45;;;;;;;23.42;15.02;;;;;;;;;;5070224;28;20021;-55
2023/06/25 04:03:11;;;;;;;21.58;14.85;;;;;;;;;;5071513;28;20240;-57
2023/06/25 04:05:37;;;;;;;22.48;15.25;;;;;;;;;;5071964;28;20454;-57
2023/06/25 04:08:03;;;;;;;24.95;14.93;;;;;;;;;;5070285;28;20081;-57
2023/06/25 04:10:29;;;;;;;23.40;14.93;;;;;;;;;;5071611;28;20400;-55
2023/06/25 04:12:55;;;;;;;21.58;14.02;;;;;;;;;;5071593;28;20025;-56
2023/06/25 04:15:21;;;;;;;23.90;16.45;;;;;;;;;;5071288;28;20624;-56
2023/06/25 04:17:47;;;;;;;23.00;14.93;;;;;;;;;;5071539;28;20024;-57
2023/06/25 04:20:13;;;;;;;23.98;15.38;;;;;;;;;;5071563;28;20387;-55
2023/06/25 04:22:39;;;;;;;21.35;14.95;;;;;;;;;;5072945;28;20158;-58
2023/06/25 04:25:06;;;;;;;22.75;15.63;;;;;;;;;;5075278;28;20448;-54
2023/06/25 04:27:32;;;;;;;22.45;15.73;;;;;;;;;;5075539;28;20483;-54
2023/06/25 04:29:58;;;;;;;22.48;15.98;;;;;;;;;;5075521;28;20031;-57
2023/06/25 04:32:24;;;;;;;25.90;17.27;;;;;;;;;;5075560;28;20025;-58
2023/06/25 04:34:52;;;;;;;23.58;15.93;;;;;;;;;;5073912;28;20020;-54
2023/06/25 04:37:19;;;;;;;23.23;15.85;;;;;;;;;;5075474;28;20021;-53
2023/06/25 04:39:45;;;;;;;23.55;16.40;;;;;;;;;;5075223;28;20024;-55
2023/06/25 04:42:11;;;;;;;24.38;16.75;;;;;;;;;;5075197;28;20035;-57
2023/06/25 04:44:37;;;;;;;25.80;17.20;;;;;;;;;;5074853;28;20469;-57
2023/06/25 04:47:03;;;;;;;23.67;16.00;;;;;;;;;;5075097;28;20035;-53
2023/06/25 04:49:29;;;;;;;22.58;16.02;;;;;;;;;;5075162;28;20066;-55
2023/06/25 04:51:55;;;;;;;28.38;16.70;;;;;;;;;;5075077;28;20026;-55
2023/06/25 04:54:21;;;;;;;24.40;16.65;;;;;;;;;;5074515;28;20021;-56
2023/06/25 04:56:47;;;;;;;23.35;17.00;;;;;;;;;;5073669;28;20029;-52
2023/06/25 04:59:13;;;;;;;24.23;16.60;;;;;;;;;;5074690;28;20480;-55
2023/06/25 05:01:39;;;;;;;22.80;15.70;;;;;;;;;;5074903;28;20028;-55
2023/06/25 05:04:05;;;;;;;23.98;16.42;;;;;;;;;;5074622;28;20024;-55
2023/06/25 05:06:31;;;;;;;22.88;17.83;;;;;;;;;;5074464;28;20550;-54
2023/06/25 05:08:57;;;;;;;27.15;17.55;;;;;;;;;;5074351;28;20065;-56
2023/06/25 05:11:23;;;;;;;23.00;17.52;;;;;;;;;;5074553;28;20017;-56
2023/06/25 05:13:49;;;;;;;27.25;19.73;;;;;;;;;;5074404;28;20035;-56
2023/06/25 05:16:15;;;;;;;25.13;18.13;;;;;;;;;;5074355;28;20033;-57
2023/06/25 05:18:42;;;;;;;22.85;17.63;;;;;;;;;;5074699;28;20067;-58
2023/06/25 05:21:08;;;;;;;22.83;16.75;;;;;;;;;;5095745;22;20033;-60
2023/06/25 05:23:57;;;;;;;24.27;17.23;;;;;;;;;;5053071;28;20056;-61
2023/06/25 05:26:23;;;;;;;23.80;16.80;;;;;;;;;;5053092;28;20099;-60
2023/06/25 05:28:49;;;;;;;24.75;17.17;;;;;;;;;;5053524;28;20021;-60
2023/06/25 05:31:15;;;;;;;24.15;17.50;;;;;;;;;;5056418;28;20090;-61
2023/06/25 05:33:41;;;;;;;26.23;16.77;;;;;;;;;;5072746;28;20476;-61
2023/06/25 05:36:07;;;;;;;25.20;17.63;;;;;;;;;;5072925;28;20099;-61
2023/06/25 05:38:33;;;;;;;23.95;16.98;;;;;;;;;;5073081;28;20506;-61
2023/06/25 05:40:59;;;;;;;27.13;18.33;;;;;;;;;;5073087;28;20028;-61
2023/06/25 05:43:25;;;;;;;23.52;16.45;;;;;;;;;;5071896;28;20621;-60
2023/06/25 05:45:51;;;;;;;24.17;17.02;;;;;;;;;;5071481;28;20087;-60
2023/06/25 05:48:17;;;;;;;24.35;17.33;;;;;;;;;;5071705;28;20020;-61
2023/06/25 05:50:43;;;;;;;24.52;17.98;;;;;;;;;;5072857;28;20016;-61
2023/06/25 05:53:09;;;;;;;25.10;16.25;;;;;;;;;;5072907;28;20365;-60
2023/06/25 05:55:35;;;;;;;22.33;16.13;;;;;;;;;;5071417;28;20020;-60
2023/06/25 05:58:01;;;;;;;25.92;17.70;;;;;;;;;;5073068;28;20044;-60
2023/06/25 06:00:27;;;;;;;21.92;15.82;;;;;;;;;;5071416;28;20082;-61
2023/06/25 06:02:53;;;;;;;25.83;16.55;;;;;;;;;;5072601;28;20025;-60
2023/06/25 06:05:19;;;;;;;23.30;15.80;;;;;;;;;;5071365;28;20112;-61
2023/06/25 06:07:45;;;;;;;22.15;16.23;;;;;;;;;;5072750;28;20036;-60
2023/06/25 06:10:12;;;;;;;25.48;16.33;;;;;;;;;;5072748;28;20029;-61
2023/06/25 06:12:38;;;;;;;24.80;15.90;;;;;;;;;;5071055;28;20047;-61
2023/06/25 06:15:05;;;;;;;22.20;14.75;;;;;;;;;;5072303;28;20025;-60
2023/06/25 06:17:31;;;;;;;22.85;15.18;;;;;;;;;;5072285;28;20024;-60
2023/06/25 06:19:57;;;;;;;23.55;15.30;;;;;;;;;;5071669;28;20048;-60
2023/06/25 06:22:22;;;;;;;22.85;14.73;;;;;;;;;;5072398;28;20043;-60
2023/06/25 06:24:48;;;;;;;24.05;15.32;;;;;;;;;;5072512;28;20142;-61
2023/06/25 06:27:14;;;;;;;22.55;15.05;;;;;;;;;;5072505;28;20401;-60
2023/06/25 06:29:40;;;;;;;24.02;14.45;;;;;;;;;;5068812;28;20036;-61
2023/06/25 06:32:07;;;;;;;21.00;16.17;;;;;;;;;;5069147;28;20044;-61
2023/06/25 06:34:33;;;;;;;21.42;14.18;;;;;;;;;;5070934;28;20057;-61
2023/06/25 06:37:01;;;;;;;20.70;15.25;;;;;;;;;;5072388;28;20113;-59
2023/06/25 06:39:26;;;;;;;20.50;14.27;;;;;;;;;;5056226;28;20457;-61
2023/06/25 06:41:52;;;;;;;22.00;14.40;;;;;;;;;;5051784;28;20095;-61
2023/06/25 06:44:19;;;;;;;22.55;14.80;;;;;;;;;;5051687;28;20025;-60
2023/06/25 06:46:45;;;;;;;20.38;13.57;;;;;;;;;;5054776;28;20031;-60
2023/06/25 06:49:11;;;;;;;21.08;14.05;;;;;;;;;;5071729;28;20040;-61
2023/06/25 06:51:38;;;;;;;22.70;14.85;;;;;;;;;;5071782;28;20027;-61
2023/06/25 06:54:04;;;;;;;21.27;15.90;;;;;;;;;;5071668;28;20027;-61
2023/06/25 06:56:31;;;;;;;19.45;13.52;;;;;;;;;;5071724;28;20476;-61
2023/06/25 06:58:57;;;;;;;20.95;13.85;;;;;;;;;;5070775;28;20329;-61
2023/06/25 07:01:23;;;;;;;20.52;15.50;;;;;;;;;;5071634;28;20025;-61
2023/06/25 07:03:49;;;;;;;21.60;14.43;;;;;;;;;;5066328;28;20040;-64
2023/06/25 07:06:15;;;;;;;19.77;13.77;;;;;;;;;;5051397;28;20021;-60
2023/06/25 07:08:41;;;;;;;19.70;13.57;;;;;;;;;;5051552;28;20377;-62
2023/06/25 07:11:07;;;;;;;21.50;13.88;;;;;;;;;;5051323;28;20072;-62
2023/06/25 07:13:33;;;;;;;20.75;14.15;;;;;;;;;;5051781;28;20435;-62
2023/06/25 07:15:59;;;;;;;21.85;14.20;;;;;;;;;;5051308;28;20362;-61
2023/06/25 07:18:25;;;;;;;20.30;13.65;;;;;;;;;;5051393;28;20021;-61
2023/06/25 07:20:51;;;;;;;18.70;13.23;;;;;;;;;;5049922;28;20021;-62
2023/06/25 07:23:17;;;;;;;19.05;13.20;;;;;;;;;;5051799;28;20036;-62
2023/06/25 07:25:43;;;;;;;21.45;14.02;;;;;;;;;;5050035;28;20029;-62
2023/06/25 07:28:09;;;;;;;20.80;13.27;;;;;;;;;;5051600;28;20025;-62
2023/06/25 07:30:35;;;;;;;18.80;13.40;;;;;;;;;;5055549;28;20028;-60
2023/06/25 07:33:03;;;;;;;20.35;13.85;;;;;;;;;;5070799;28;20039;-61
2023/06/25 07:35:29;;;;;;;19.35;13.23;;;;;;;;;;5070596;28;20025;-61
2023/06/25 07:37:55;;;;;;;20.50;13.23;;;;;;;;;;5070927;28;20055;-62
2023/06/25 07:40:21;;;;;;;18.83;13.57;;;;;;;;;;5071032;28;20473;-62
2023/06/25 07:42:47;;;;;;;19.70;14.02;;;;;;;;;;5071177;28;20035;-62
2023/06/25 07:45:13;;;;;;;20.58;13.07;;;;;;;;;;5070510;28;20493;-62
2023/06/25 07:47:39;;;;;;;18.67;13.38;;;;;;;;;;5072940;28;20040;-60
2023/06/25 07:50:06;;;;;;;19.90;13.70;;;;;;;;;;5073416;28;20032;-46
2023/06/25 07:52:32;;;;;;;17.95;13.23;;;;;;;;;;5069885;28;20024;-45
2023/06/25 07:54:58;;;;;;;19.42;13.63;;;;;;;;;;5071160;28;20544;-46
2023/06/25 07:57:24;;;;;;;19.63;14.00;;;;;;;;;;5069717;28;20029;-46
2023/06/25 07:59:50;;;;;;;19.70;13.63;;;;;;;;;;5071347;28;20040;-46
2023/06/25 08:02:16;;;;;;;19.73;14.57;;;;;;;;;;5069957;28;20031;-50
2023/06/25 08:04:42;;;;;;;19.27;13.18;;;;;;;;;;5070898;28;20032;-47
2023/06/25 08:07:08;;;;;;;20.08;13.82;;;;;;;;;;5069420;28;20025;-48
2023/06/25 08:09:36;;;;;;;18.23;13.63;;;;;;;;;;5089871;28;20295;-46
2023/06/25 08:12:02;;;;;;;18.73;13.60;;;;;;;;;;5091051;28;20024;-46
2023/06/25 08:14:28;;;;;;;19.45;13.82;;;;;;;;;;5090792;28;20047;-45
2023/06/25 08:16:54;;;;;;;18.38;12.88;;;;;;;;;;5090951;28;20028;-48
2023/06/25 08:19:20;;;;;;;20.73;14.73;;;;;;;;;;5090722;28;20093;-47
2023/06/25 08:21:46;;;;;;;20.23;13.77;;;;;;;;;;5090919;28;20036;-48
2023/06/25 08:24:12;;;;;;;19.27;14.07;;;;;;;;;;5089270;28;20021;-49
2023/06/25 08:26:38;;;;;;;20.17;14.30;;;;;;;;;;5090910;28;20039;-45
2023/06/25 08:29:04;;;;;;;21.38;14.52;;;;;;;;;;5091168;28;20516;-50
2023/06/25 08:31:30;;;;;;;18.15;13.55;;;;;;;;;;5081458;28;20048;-47
2023/06/25 08:33:56;;;;;;;21.27;13.40;;;;;;;;;;5070339;28;20046;-47
2023/06/25 08:36:22;;;;;;;19.38;13.77;;;;;;;;;;5069452;28;20400;-45
2023/06/25 08:38:48;;;;;;;18.55;13.65;;;;;;;;;;5070902;28;20110;-45
2023/06/25 08:41:14;;;;;;;20.88;13.68;;;;;;;;;;5070848;28;20033;-48
2023/06/25 08:43:41;;;;;;;18.55;13.30;;;;;;;;;;5070124;28;20036;-46
2023/06/25 08:46:08;;;;;;;19.17;13.80;;;;;;;;;;5070316;28;20538;-50
2023/06/25 08:48:34;;;;;;;18.67;13.70;;;;;;;;;;5070608;28;20044;-46
2023/06/25 08:51:06;;;;;;;18.55;14.20;;;;;;;;;;5070526;28;20053;-47
2023/06/25 08:53:32;;;;;;;18.85;14.25;;;;;;;;;;5069229;28;20096;-59
2023/06/25 08:56:00;;;;;;;17.80;14.20;;;;;;;;;;5069160;28;20088;-58
2023/06/25 08:58:26;;;;;;;19.67;15.87;;;;;;;;;;5070113;28;20440;-57
2023/06/25 09:00:52;;;;;;;18.95;14.75;;;;;;;;;;5069963;28;20259;-60
2023/06/25 09:03:18;;;;;;;20.02;15.38;;;;;;;;;;5069826;28;20450;-54
2023/06/25 09:05:52;;;;;;;18.58;14.80;;;;;;;;;;5069806;28;20016;-59
2023/06/25 09:08:18;;;;;;;19.15;15.13;;;;;;;;;;5070400;28;20500;-57
2023/06/25 09:10:48;;;;;;;19.17;15.35;;;;;;;;;;5073061;28;20027;-59
2023/06/25 09:13:20;;;;;;;20.65;15.57;;;;;;;;;;5073588;28;20486;-59
2023/06/25 09:15:46;;;;;;;17.58;14.38;;;;;;;;;;5072624;28;20103;-58
2023/06/25 09:18:12;;;;;;;22.83;15.30;;;;;;;;;;5074138;28;20064;-65
2023/06/25 09:20:39;;;;;;;18.27;14.43;;;;;;;;;;5076539;28;20028;-58
2023/06/25 09:23:05;;;;;;;17.80;14.90;;;;;;;;;;5076715;28;20028;-57
2023/06/25 09:25:31;;;;;;;18.02;14.35;;;;;;;;;;5077042;28;20160;-59
2023/06/25 09:28:00;;;;;;;20.35;15.25;;;;;;;;;;5076367;28;20381;-57
2023/06/25 09:30:26;;;;;;;18.38;14.73;;;;;;;;;;5077209;28;20013;-59
2023/06/25 09:32:53;;;;;;;18.65;14.55;;;;;;;;;;5078101;28;20106;-59
2023/06/25 09:35:23;;;;;;;20.80;15.02;;;;;;;;;;5077545;28;20072;-60
2023/06/25 09:37:52;;;;;;;18.48;15.02;;;;;;;;;;5078372;28;20036;-59
2023/06/25 09:40:18;;;;;;;19.13;15.15;;;;;;;;;;5078339;28;20075;-60
2023/06/25 09:42:45;;;;;;;18.08;14.73;;;;;;;;;;5077346;28;20029;-59
2023/06/25 09:45:14;;;;;;;19.05;15.23;;;;;;;;;;5077664;28;20028;-58
2023/06/25 09:47:42;;;;;;;17.77;14.13;;;;;;;;;;5076851;28;20425;-57
2023/06/25 09:50:08;;;;;;;17.77;14.00;;;;;;;;;;5075549;28;20021;-59
2023/06/25 09:52:35;;;;;;;18.50;14.90;;;;;;;;;;5076505;28;20271;-59
2023/06/25 09:55:02;;;;;;;18.85;15.15;;;;;;;;;;5075259;28;20052;-56
2023/06/25 09:57:29;;;;;;;18.27;14.32;;;;;;;;;;5076928;28;20170;-57
2023/06/25 09:59:55;;;;;;;19.70;15.02;;;;;;;;;;5076881;28;20043;-57
2023/06/25 10:02:21;;;;;;;18.33;14.52;;;;;;;;;;5076931;28;20085;-56
2023/06/25 10:04:47;;;;;;;18.90;14.95;;;;;;;;;;5076706;28;20105;-60
2023/06/25 10:07:14;;;;;;;18.30;14.68;;;;;;;;;;5075410;28;20046;-56
2023/06/25 10:09:40;;;;;;;18.77;15.25;;;;;;;;;;5073812;28;20024;-57
2023/06/25 10:12:06;;;;;;;18.90;14.77;;;;;;;;;;5074949;28;20021;-57
2023/06/25 10:14:38;;;;;;;20.75;15.68;;;;;;;;;;5073018;28;20025;-55
2023/06/25 10:17:05;;;;;;;19.02;15.30;;;;;;;;;;5074483;28;20032;-55
2023/06/25 10:19:31;;;;;;;19.40;15.60;;;;;;;;;;5074280;28;20021;-57
2023/06/25 10:22:03;;;;;;;18.50;14.48;;;;;;;;;;5073936;28;20408;-58
2023/06/25 10:24:42;;;;;;;19.50;15.02;;;;;;;;;;5074261;28;20434;-54
2023/06/25 10:27:26;;;;;;;18.83;15.00;;;;;;;;;;5079279;28;20029;-55
2023/06/25 10:29:53;;;;;;;18.15;14.85;;;;;;;;;;5085724;28;20429;-57
2023/06/25 10:32:22;;;;;;;18.90;14.25;;;;;;;;;;5085964;28;20036;-55
2023/06/25 10:34:55;;;;;;;19.35;14.88;;;;;;;;;;5090752;28;20021;-57
2023/06/25 10:37:21;;;;;;;19.27;14.93;;;;;;;;;;5093124;28;20391;-59
2023/06/25 10:39:47;;;;;;;17.40;14.27;;;;;;;;;;5093329;28;20364;-56
2023/06/25 10:42:13;;;;;;;17.73;14.60;;;;;;;;;;5093696;28;20020;-59
2023/06/25 10:44:41;;;;;;;18.83;15.07;;;;;;;;;;5093687;28;20492;-57
2023/06/25 10:47:10;;;;;;;18.43;14.93;;;;;;;;;;5093532;28;20074;-56
2023/06/25 10:49:36;;;;;;;18.30;15.18;;;;;;;;;;5093017;28;20028;-57
2023/06/25 10:52:03;;;;;;;18.10;14.95;;;;;;;;;;5093345;28;20028;-58
2023/06/25 10:54:29;;;;;;;18.35;14.70;;;;;;;;;;5093048;28;20021;-57
2023/06/25 10:57:15;;;;;;;19.90;15.15;;;;;;;;;;5092931;28;20423;-57
2023/06/25 10:59:45;;;;;;;18.60;15.27;;;;;;;;;;5093020;28;20043;-53
2023/06/25 11:02:18;;;;;;;18.52;15.32;;;;;;;;;;5093137;28;20436;-56
2023/06/25 11:04:50;;;;;;;18.73;15.35;;;;;;;;;;5082809;28;20055;-58
2023/06/25 11:07:16;;;;;;;18.63;15.48;;;;;;;;;;5081362;28;20065;-58
2023/06/25 11:09:42;;;;;;;18.50;14.73;;;;;;;;;;5082497;28;20024;-58
2023/06/25 11:12:08;;;;;;;18.52;15.35;;;;;;;;;;5082897;28;20016;-54
2023/06/25 11:14:34;;;;;;;18.75;15.10;;;;;;;;;;5091622;28;20020;-57
2023/06/25 11:17:00;;;;;;;19.55;15.60;;;;;;;;;;5093002;28;20024;-58
2023/06/25 11:19:27;;;;;;;20.30;14.98;;;;;;;;;;5092703;28;20070;-56
2023/06/25 11:21:53;;;;;;;18.60;15.18;;;;;;;;;;5110780;22;20052;-57
2023/06/25 11:24:19;;;;;;;19.90;15.25;;;;;;;;;;5069794;28;20055;-58
2023/06/25 11:26:45;;;;;;;17.92;14.95;;;;;;;;;;5071723;28;20025;-56
2023/06/25 11:29:11;;;;;;;18.95;15.23;;;;;;;;;;5070410;28;20032;-54
2023/06/25 11:31:41;;;;;;;20.38;15.65;;;;;;;;;;5070971;28;20020;-58
2023/06/25 11:34:08;;;;;;;19.15;15.25;;;;;;;;;;5069825;28;20477;-55
2023/06/25 11:36:33;;;;;;;22.63;16.30;;;;;;;;;;5071528;28;20046;-57
2023/06/25 11:38:59;;;;;;;19.10;16.02;;;;;;;;;;5071435;28;20066;-58
2023/06/25 11:41:27;;;;;;;19.13;15.73;;;;;;;;;;5071143;28;20021;-56
2023/06/25 11:43:53;;;;;;;19.25;16.10;;;;;;;;;;5071226;28;20037;-56
2023/06/25 11:46:20;;;;;;;19.40;15.55;;;;;;;;;;5071188;28;20027;-54
2023/06/25 11:48:50;;;;;;;18.42;15.32;;;;;;;;;;5070245;28;20119;-58
2023/06/25 11:51:16;;;;;;;20.25;15.55;;;;;;;;;;5071458;28;20028;-60
2023/06/25 11:53:42;;;;;;;18.05;15.20;;;;;;;;;;5071239;28;20134;-57
2023/06/25 11:56:08;;;;;;;18.80;15.73;;;;;;;;;;5059871;28;20020;-56
2023/06/25 11:58:34;;;;;;;17.88;15.38;;;;;;;;;;5061886;28;20123;-54
2023/06/25 12:01:00;;;;;;;19.20;16.00;;;;;;;;;;5060584;28;20017;-56
2023/06/25 12:03:26;;;;;;;17.95;15.40;;;;;;;;;;5057543;28;20096;-58
2023/06/25 12:05:52;;;;;;;19.17;15.75;;;;;;;;;;5055811;28;20032;-57
2023/06/25 12:08:18;;;;;;;18.20;15.57;;;;;;;;;;5056788;28;20684;-55
2023/06/25 12:10:44;;;;;;;18.77;15.65;;;;;;;;;;5051016;28;20025;-58
2023/06/25 12:13:10;;;;;;;18.40;15.07;;;;;;;;;;5054113;28;20031;-57
2023/06/25 12:15:36;;;;;;;19.35;15.43;;;;;;;;;;5051470;28;20050;-58
2023/06/25 12:18:02;;;;;;;19.00;15.70;;;;;;;;;;5051289;28;20028;-57
2023/06/25 12:20:28;;;;;;;19.23;16.00;;;;;;;;;;5051344;28;20362;-59
2023/06/25 12:22:54;;;;;;;19.02;16.23;;;;;;;;;;4705996;28;10000388;-60
2023/06/25 12:25:20;;;;;;;19.85;15.27;;;;;;;;;;5059939;28;20063;-60
2023/06/25 12:27:46;;;;;;;18.20;15.40;;;;;;;;;;5048858;28;20026;-60
2023/06/25 12:30:13;;;;;;;17.85;15.43;;;;;;;;;;5067876;28;20116;-59
2023/06/25 12:32:39;;;;;;;19.20;15.77;;;;;;;;;;5054087;28;20056;-56
2023/06/25 12:35:06;;;;;;;18.30;15.73;;;;;;;;;;5067618;28;20083;-58
2023/06/25 12:37:32;;;;;;;18.13;15.57;;;;;;;;;;5067914;28;20107;-58
2023/06/25 12:39:58;;;;;;;18.98;15.35;;;;;;;;;;5067725;28;20465;-59
2023/06/25 12:42:24;;;;;;;17.77;14.82;;;;;;;;;;5058058;28;20040;-56
2023/06/25 12:44:50;;;;;;;17.55;15.38;;;;;;;;;;5058104;28;20032;-59
2023/06/25 12:47:16;;;;;;;17.92;15.52;;;;;;;;;;5052594;28;20489;-59
2023/06/25 12:49:42;;;;;;;18.58;15.30;;;;;;;;;;5052263;28;20032;-57
2023/06/25 12:52:08;;;;;;;17.88;15.18;;;;;;;;;;5051695;28;20044;-59
2023/06/25 12:54:34;;;;;;;18.05;15.55;;;;;;;;;;5053929;28;20535;-60
2023/06/25 12:57:00;;;;;;;20.02;15.68;;;;;;;;;;5054287;28;20044;-58
2023/06/25 12:59:26;;;;;;;17.55;15.65;;;;;;;;;;5066307;28;20551;-59
2023/06/25 13:01:56;;;;;;;17.30;15.35;;;;;;;;;;5071659;28;20028;-60
2023/06/25 13:04:22;;;;;;;17.88;15.55;;;;;;;;;;5071429;28;20036;-57
2023/06/25 13:06:48;;;;;;;18.63;15.68;;;;;;;;;;5058145;28;20032;-58
2023/06/25 13:09:14;;;;;;;19.58;16.63;;;;;;;;;;5050262;28;20013;-59
2023/06/25 13:11:40;;;;;;;18.58;15.20;;;;;;;;;;5051392;28;20110;-59
2023/06/25 13:14:06;;;;;;;17.60;15.23;;;;;;;;;;5051098;28;20040;-58
2023/06/25 13:16:32;;;;;;;18.73;14.77;;;;;;;;;;5051019;28;20134;-60
2023/06/25 13:18:58;;;;;;;18.90;15.48;;;;;;;;;;5051237;28;20103;-61
2023/06/25 13:21:24;;;;;;;18.35;15.68;;;;;;;;;;5051336;28;20029;-58
2023/06/25 13:23:50;;;;;;;17.20;15.30;;;;;;;;;;5063796;28;20036;-59
2023/06/25 13:26:16;;;;;;;18.45;15.82;;;;;;;;;;5070652;28;20502;-56
2023/06/25 13:28:42;;;;;;;19.25;16.05;;;;;;;;;;5071088;28;20029;-57
2023/06/25 13:31:08;;;;;;;18.88;15.63;;;;;;;;;;5066832;28;20096;-59
2023/06/25 13:33:34;;;;;;;21.17;16.73;;;;;;;;;;5058781;28;20081;-59
2023/06/25 13:36:00;;;;;;;17.45;15.55;;;;;;;;;;5062468;28;20115;-58
2023/06/25 13:38:26;;;;;;;19.20;15.48;;;;;;;;;;5061258;28;20122;-60
2023/06/25 13:40:52;;;;;;;18.10;16.10;;;;;;;;;;5068037;28;20146;-56
2023/06/25 13:43:18;;;;;;;18.73;15.77;;;;;;;;;;5055051;28;20025;-54
2023/06/25 13:45:44;;;;;;;19.02;16.02;;;;;;;;;;5071535;28;20094;-55
2023/06/25 13:48:10;;;;;;;18.25;15.93;;;;;;;;;;5071517;28;20032;-57
2023/06/25 13:50:36;;;;;;;19.45;16.05;;;;;;;;;;5073063;28;20111;-59
2023/06/25 13:53:02;;;;;;;17.02;15.05;;;;;;;;;;5073480;28;20374;-55
2023/06/25 13:55:28;;;;;;;17.67;15.65;;;;;;;;;;5072744;28;20031;-57
2023/06/25 13:57:54;;;;;;;19.33;15.32;;;;;;;;;;5073424;28;20059;-53
2023/06/25 14:00:21;;;;;;;17.65;15.60;;;;;;;;;;5063820;28;20138;-54
2023/06/25 14:02:47;;;;;;;17.77;15.27;;;;;;;;;;5073360;28;20044;-53
2023/06/25 14:05:13;;;;;;;18.67;15.52;;;;;;;;;;5073314;28;20028;-54
2023/06/25 14:07:39;;;;;;;17.63;15.57;;;;;;;;;;5073396;28;20040;-58
2023/06/25 14:10:06;;;;;;;19.00;15.75;;;;;;;;;;5073332;28;20029;-57
2023/06/25 14:12:32;;;;;;;18.42;15.75;;;;;;;;;;5073095;28;20025;-56